Terminal Aerodrome Forecast
Issued by NWS Cleveland, OH

Home | Current Version | Previous Version | Graphics & Text | Print | Product List | Glossary On
Versions: 1 2 3 4 5 6 7 8 9 10 11 12 13 14 15
000
FTUS41 KCLE 192300
TAFMFD
TAF
KMFD 192330Z 2000/2024 20005KT P6SM BKN025 OVC050
      TEMPO 2000/2002 6SM -SHRA SCT025 BKN050
     FM200200 VRB03KT P6SM SCT050
     FM200500 00000KT 4SM BR SCT004 BKN025
     FM200800 00000KT 1/2SM FG BKN002
     FM201400 VRB03KT 5SM BR BKN006
     FM201600 VRB04KT P6SM BKN020
     FM202100 18004KT P6SM SCT050=

USA.gov is the U.S. government's official web portal to all federal, state and local government web resources and services.